sensor_id;sensor_type;location;lat;lon;timestamp;P1;durP1;ratioP1;P2;durP2;ratioP2
50631;SDS011;49583;45.590;-122.498;2023-04-24T00:00:33;8.60;;;2.80;;
50631;SDS011;49583;45.590;-122.498;2023-04-24T00:03:02;9.10;;;2.90;;
50631;SDS011;49583;45.590;-122.498;2023-04-24T00:05:15;8.60;;;3.10;;
50631;SDS011;49583;45.590;-122.498;2023-04-24T00:07:28;5.30;;;2.60;;
50631;SDS011;49583;45.590;-122.498;2023-04-24T00:09:40;8.10;;;2.60;;
50631;SDS011;49583;45.590;-122.498;2023-04-24T00:11:54;8.90;;;3.10;;
50631;SDS011;49583;45.590;-122.498;2023-04-24T00:14:07;5.80;;;2.20;;
50631;SDS011;49583;45.590;-122.498;2023-04-24T00:16:20;8.90;;;2.50;;
50631;SDS011;49583;45.590;-122.498;2023-04-24T00:18:33;6.50;;;2.70;;
50631;SDS011;49583;45.590;-122.498;2023-04-24T00:20:45;7.70;;;2.80;;
50631;SDS011;49583;45.590;-122.498;2023-04-24T00:22:58;10.50;;;3.50;;
50631;SDS011;49583;45.590;-122.498;2023-04-24T00:25:11;10.20;;;3.00;;
50631;SDS011;49583;45.590;-122.498;2023-04-24T00:27:23;6.00;;;2.60;;
50631;SDS011;49583;45.590;-122.498;2023-04-24T00:29:36;8.20;;;2.40;;
50631;SDS011;49583;45.590;-122.498;2023-04-24T00:31:49;6.80;;;3.20;;
50631;SDS011;49583;45.590;-122.498;2023-04-24T00:34:02;7.40;;;3.90;;
50631;SDS011;49583;45.590;-122.498;2023-04-24T00:36:15;13.70;;;5.10;;
50631;SDS011;49583;45.590;-122.498;2023-04-24T00:38:29;10.10;;;3.50;;
50631;SDS011;49583;45.590;-122.498;2023-04-24T00:40:42;13.10;;;4.40;;
50631;SDS011;49583;45.590;-122.498;2023-04-24T00:42:55;9.10;;;3.90;;
50631;SDS011;49583;45.590;-122.498;2023-04-24T00:45:08;13.10;;;3.80;;
50631;SDS011;49583;45.590;-122.498;2023-04-24T00:47:22;10.10;;;3.40;;
50631;SDS011;49583;45.590;-122.498;2023-04-24T00:49:34;12.30;;;3.40;;
50631;SDS011;49583;45.590;-122.498;2023-04-24T00:51:47;9.70;;;3.30;;
50631;SDS011;49583;45.590;-122.498;2023-04-24T00:53:59;10.70;;;3.70;;
50631;SDS011;49583;45.590;-122.498;2023-04-24T00:56:12;8.80;;;3.20;;
50631;SDS011;49583;45.590;-122.498;2023-04-24T00:58:25;11.70;;;3.00;;
50631;SDS011;49583;45.590;-122.498;2023-04-24T01:00:38;10.10;;;3.40;;
50631;SDS011;49583;45.590;-122.498;2023-04-24T01:02:51;9.80;;;2.90;;
50631;SDS011;49583;45.590;-122.498;2023-04-24T01:05:06;7.80;;;3.80;;
50631;SDS011;49583;45.590;-122.498;2023-04-24T01:07:21;10.60;;;3.00;;
50631;SDS011;49583;45.590;-122.498;2023-04-24T01:09:34;9.70;;;2.90;;
50631;SDS011;49583;45.590;-122.498;2023-04-24T01:11:48;9.60;;;3.10;;
50631;SDS011;49583;45.590;-122.498;2023-04-24T01:14:00;11.10;;;4.40;;
50631;SDS011;49583;45.590;-122.498;2023-04-24T01:16:14;7.30;;;3.30;;
50631;SDS011;49583;45.590;-122.498;2023-04-24T01:18:28;13.10;;;3.40;;
50631;SDS011;49583;45.590;-122.498;2023-04-24T01:20:41;15.80;;;3.50;;
50631;SDS011;49583;45.590;-122.498;2023-04-24T01:22:54;13.20;;;3.40;;
50631;SDS011;49583;45.590;-122.498;2023-04-24T01:25:08;7.80;;;3.50;;
50631;SDS011;49583;45.590;-122.498;2023-04-24T01:27:21;10.00;;;3.10;;
50631;SDS011;49583;45.590;-122.498;2023-04-24T01:29:33;11.60;;;3.30;;
50631;SDS011;49583;45.590;-122.498;2023-04-24T01:31:48;45.10;;;29.80;;
50631;SDS011;49583;45.590;-122.498;2023-04-24T01:34:01;16.50;;;12.70;;
50631;SDS011;49583;45.590;-122.498;2023-04-24T01:36:15;16.70;;;8.80;;
50631;SDS011;49583;45.590;-122.498;2023-04-24T01:38:31;13.40;;;6.30;;
50631;SDS011;49583;45.590;-122.498;2023-04-24T01:40:44;11.10;;;5.10;;
50631;SDS011;49583;45.590;-122.498;2023-04-24T01:42:57;9.50;;;4.10;;
50631;SDS011;49583;45.590;-122.498;2023-04-24T01:45:10;9.00;;;3.70;;
50631;SDS011;49583;45.590;-122.498;2023-04-24T01:47:23;12.20;;;4.10;;
50631;SDS011;49583;45.590;-122.498;2023-04-24T01:49:36;13.40;;;4.20;;
50631;SDS011;49583;45.590;-122.498;2023-04-24T01:51:51;11.20;;;3.50;;
50631;SDS011;49583;45.590;-122.498;2023-04-24T01:54:03;13.20;;;4.10;;
50631;SDS011;49583;45.590;-122.498;2023-04-24T01:56:17;9.00;;;3.70;;
50631;SDS011;49583;45.590;-122.498;2023-04-24T01:58:30;9.40;;;4.50;;
50631;SDS011;49583;45.590;-122.498;2023-04-24T02:00:43;8.20;;;3.60;;
50631;SDS011;49583;45.590;-122.498;2023-04-24T02:02:55;13.40;;;3.80;;
50631;SDS011;49583;45.590;-122.498;2023-04-24T02:05:10;11.90;;;4.60;;
50631;SDS011;49583;45.590;-122.498;2023-04-24T02:07:22;14.90;;;4.00;;
50631;SDS011;49583;45.590;-122.498;2023-04-24T02:09:34;15.80;;;4.60;;
50631;SDS011;49583;45.590;-122.498;2023-04-24T02:11:48;10.30;;;4.10;;
50631;SDS011;49583;45.590;-122.498;2023-04-24T02:14:01;11.30;;;4.90;;
50631;SDS011;49583;45.590;-122.498;2023-04-24T02:16:13;11.30;;;4.50;;
50631;SDS011;49583;45.590;-122.498;2023-04-24T02:18:26;13.50;;;5.60;;
50631;SDS011;49583;45.590;-122.498;2023-04-24T02:20:38;11.90;;;5.20;;
50631;SDS011;49583;45.590;-122.498;2023-04-24T02:22:50;39.50;;;20.30;;
50631;SDS011;49583;45.590;-122.498;2023-04-24T02:25:03;30.20;;;20.00;;
50631;SDS011;49583;45.590;-122.498;2023-04-24T02:27:16;17.90;;;7.30;;
50631;SDS011;49583;45.590;-122.498;2023-04-24T02:29:30;10.90;;;4.70;;
50631;SDS011;49583;45.590;-122.498;2023-04-24T02:31:42;13.40;;;5.00;;
50631;SDS011;49583;45.590;-122.498;2023-04-24T02:33:55;9.70;;;3.70;;
50631;SDS011;49583;45.590;-122.498;2023-04-24T02:36:08;10.60;;;3.40;;
50631;SDS011;49583;45.590;-122.498;2023-04-24T02:38:20;6.50;;;3.10;;
50631;SDS011;49583;45.590;-122.498;2023-04-24T02:40:33;9.60;;;3.10;;
50631;SDS011;49583;45.590;-122.498;2023-04-24T02:42:45;8.20;;;3.60;;
50631;SDS011;49583;45.590;-122.498;2023-04-24T02:44:58;9.60;;;3.40;;
50631;SDS011;49583;45.590;-122.498;2023-04-24T02:47:10;7.00;;;3.10;;
50631;SDS011;49583;45.590;-122.498;2023-04-24T02:49:24;6.60;;;3.60;;
50631;SDS011;49583;45.590;-122.498;2023-04-24T02:51:36;9.50;;;3.60;;
50631;SDS011;49583;45.590;-122.498;2023-04-24T02:53:50;13.20;;;2.80;;
50631;SDS011;49583;45.590;-122.498;2023-04-24T02:56:02;12.70;;;3.00;;
50631;SDS011;49583;45.590;-122.498;2023-04-24T02:58:15;10.10;;;2.90;;
50631;SDS011;49583;45.590;-122.498;2023-04-24T03:00:28;11.00;;;3.40;;
50631;SDS011;49583;45.590;-122.498;2023-04-24T03:02:41;9.30;;;3.10;;
50631;SDS011;49583;45.590;-122.498;2023-04-24T03:04:54;8.30;;;3.50;;
50631;SDS011;49583;45.590;-122.498;2023-04-24T03:07:07;8.60;;;3.00;;
50631;SDS011;49583;45.590;-122.498;2023-04-24T03:09:19;9.00;;;2.80;;
50631;SDS011;49583;45.590;-122.498;2023-04-24T03:11:32;10.60;;;3.00;;
50631;SDS011;49583;45.590;-122.498;2023-04-24T03:13:46;4.80;;;2.90;;
50631;SDS011;49583;45.590;-122.498;2023-04-24T03:15:59;7.20;;;2.70;;
50631;SDS011;49583;45.590;-122.498;2023-04-24T03:18:12;10.40;;;2.80;;
50631;SDS011;49583;45.590;-122.498;2023-04-24T03:20:29;6.30;;;2.70;;
50631;SDS011;49583;45.590;-122.498;2023-04-24T03:22:41;8.90;;;2.60;;
50631;SDS011;49583;45.590;-122.498;2023-04-24T03:24:54;11.60;;;2.60;;
50631;SDS011;49583;45.590;-122.498;2023-04-24T03:27:09;6.80;;;2.50;;
50631;SDS011;49583;45.590;-122.498;2023-04-24T03:29:30;7.70;;;3.00;;
50631;SDS011;49583;45.590;-122.498;2023-04-24T03:31:42;9.20;;;2.50;;
50631;SDS011;49583;45.590;-122.498;2023-04-24T03:33:55;8.10;;;2.90;;
50631;SDS011;49583;45.590;-122.498;2023-04-24T03:36:09;8.10;;;2.80;;
50631;SDS011;49583;45.590;-122.498;2023-04-24T03:38:22;8.10;;;3.00;;
50631;SDS011;49583;45.590;-122.498;2023-04-24T03:40:38;4.80;;;2.30;;
50631;SDS011;49583;45.590;-122.498;2023-04-24T03:43:09;6.30;;;3.10;;
50631;SDS011;49583;45.590;-122.498;2023-04-24T03:45:23;9.20;;;2.60;;
50631;SDS011;49583;45.590;-122.498;2023-04-24T03:47:36;5.50;;;2.30;;
50631;SDS011;49583;45.590;-122.498;2023-04-24T03:49:52;6.40;;;2.10;;
50631;SDS011;49583;45.590;-122.498;2023-04-24T03:52:04;7.90;;;3.40;;
50631;SDS011;49583;45.590;-122.498;2023-04-24T03:54:17;8.50;;;3.10;;
50631;SDS011;49583;45.590;-122.498;2023-04-24T03:56:31;6.90;;;2.50;;
50631;SDS011;49583;45.590;-122.498;2023-04-24T03:58:43;8.50;;;2.80;;
50631;SDS011;49583;45.590;-122.498;2023-04-24T04:00:56;6.00;;;2.60;;
50631;SDS011;49583;45.590;-122.498;2023-04-24T04:03:25;8.40;;;2.80;;
50631;SDS011;49583;45.590;-122.498;2023-04-24T04:05:38;4.90;;;2.60;;
50631;SDS011;49583;45.590;-122.498;2023-04-24T04:07:51;6.40;;;2.40;;
50631;SDS011;49583;45.590;-122.498;2023-04-24T04:10:04;6.40;;;2.90;;
50631;SDS011;49583;45.590;-122.498;2023-04-24T04:12:18;6.30;;;2.70;;
50631;SDS011;49583;45.590;-122.498;2023-04-24T04:14:33;5.70;;;2.50;;
50631;SDS011;49583;45.590;-122.498;2023-04-24T04:16:45;6.70;;;2.60;;
50631;SDS011;49583;45.590;-122.498;2023-04-24T04:19:00;6.60;;;3.20;;
50631;SDS011;49583;45.590;-122.498;2023-04-24T04:21:13;8.10;;;2.60;;
50631;SDS011;49583;45.590;-122.498;2023-04-24T04:23:27;6.40;;;2.80;;
50631;SDS011;49583;45.590;-122.498;2023-04-24T04:25:51;5.90;;;2.80;;
50631;SDS011;49583;45.590;-122.498;2023-04-24T04:28:09;5.20;;;3.40;;
50631;SDS011;49583;45.590;-122.498;2023-04-24T04:30:23;8.80;;;3.10;;
50631;SDS011;49583;45.590;-122.498;2023-04-24T04:32:40;9.60;;;3.50;;
50631;SDS011;49583;45.590;-122.498;2023-04-24T04:34:53;6.50;;;2.90;;
50631;SDS011;49583;45.590;-122.498;2023-04-24T04:37:06;8.00;;;3.60;;
50631;SDS011;49583;45.590;-122.498;2023-04-24T04:39:30;6.90;;;3.70;;
50631;SDS011;49583;45.590;-122.498;2023-04-24T04:42:03;6.50;;;2.90;;
50631;SDS011;49583;45.590;-122.498;2023-04-24T04:44:20;9.60;;;3.60;;
50631;SDS011;49583;45.590;-122.498;2023-04-24T04:46:36;9.10;;;4.20;;
50631;SDS011;49583;45.590;-122.498;2023-04-24T04:49:10;6.50;;;3.20;;
50631;SDS011;49583;45.590;-122.498;2023-04-24T04:51:24;7.40;;;2.60;;
50631;SDS011;49583;45.590;-122.498;2023-04-24T04:53:37;7.20;;;2.80;;
50631;SDS011;49583;45.590;-122.498;2023-04-24T04:55:50;9.10;;;3.20;;
50631;SDS011;49583;45.590;-122.498;2023-04-24T04:58:07;5.30;;;3.10;;
50631;SDS011;49583;45.590;-122.498;2023-04-24T05:00:19;9.20;;;2.90;;
50631;SDS011;49583;45.590;-122.498;2023-04-24T05:02:32;5.30;;;2.40;;
50631;SDS011;49583;45.590;-122.498;2023-04-24T05:04:45;5.80;;;2.70;;
50631;SDS011;49583;45.590;-122.498;2023-04-24T05:06:59;8.00;;;2.70;;
50631;SDS011;49583;45.590;-122.498;2023-04-24T05:09:13;8.30;;;2.90;;
50631;SDS011;49583;45.590;-122.498;2023-04-24T05:11:32;7.00;;;2.10;;
50631;SDS011;49583;45.590;-122.498;2023-04-24T05:13:46;5.70;;;2.90;;
50631;SDS011;49583;45.590;-122.498;2023-04-24T05:16:04;7.50;;;2.50;;
50631;SDS011;49583;45.590;-122.498;2023-04-24T05:18:18;8.90;;;2.40;;
50631;SDS011;49583;45.590;-122.498;2023-04-24T05:20:31;5.70;;;2.40;;
50631;SDS011;49583;45.590;-122.498;2023-04-24T05:22:44;6.50;;;2.50;;
50631;SDS011;49583;45.590;-122.498;2023-04-24T05:24:58;16.20;;;3.00;;
50631;SDS011;49583;45.590;-122.498;2023-04-24T05:27:17;11.50;;;3.00;;
50631;SDS011;49583;45.590;-122.498;2023-04-24T05:29:30;11.60;;;2.90;;
50631;SDS011;49583;45.590;-122.498;2023-04-24T05:31:43;8.80;;;3.20;;
50631;SDS011;49583;45.590;-122.498;2023-04-24T05:33:57;8.90;;;3.20;;
50631;SDS011;49583;45.590;-122.498;2023-04-24T05:36:09;7.80;;;2.70;;
50631;SDS011;49583;45.590;-122.498;2023-04-24T05:38:22;5.40;;;2.70;;
50631;SDS011;49583;45.590;-122.498;2023-04-24T05:40:34;8.40;;;3.00;;
50631;SDS011;49583;45.590;-122.498;2023-04-24T05:42:47;9.10;;;3.20;;
50631;SDS011;49583;45.590;-122.498;2023-04-24T05:44:59;7.80;;;2.40;;
50631;SDS011;49583;45.590;-122.498;2023-04-24T05:47:14;4.10;;;1.70;;
50631;SDS011;49583;45.590;-122.498;2023-04-24T05:49:26;10.60;;;3.00;;
50631;SDS011;49583;45.590;-122.498;2023-04-24T05:51:39;5.80;;;2.70;;
50631;SDS011;49583;45.590;-122.498;2023-04-24T05:53:52;8.00;;;2.80;;
50631;SDS011;49583;45.590;-122.498;2023-04-24T05:56:04;7.80;;;2.80;;
50631;SDS011;49583;45.590;-122.498;2023-04-24T05:58:17;5.70;;;3.00;;
50631;SDS011;49583;45.590;-122.498;2023-04-24T06:00:29;8.60;;;2.70;;
50631;SDS011;49583;45.590;-122.498;2023-04-24T06:02:44;7.60;;;3.00;;
50631;SDS011;49583;45.590;-122.498;2023-04-24T06:04:57;6.50;;;2.90;;
50631;SDS011;49583;45.590;-122.498;2023-04-24T06:07:10;8.40;;;3.20;;
50631;SDS011;49583;45.590;-122.498;2023-04-24T06:09:23;7.60;;;3.10;;
50631;SDS011;49583;45.590;-122.498;2023-04-24T06:11:35;4.70;;;2.70;;
50631;SDS011;49583;45.590;-122.498;2023-04-24T06:13:49;4.90;;;2.30;;
50631;SDS011;49583;45.590;-122.498;2023-04-24T06:16:21;12.30;;;2.80;;
50631;SDS011;49583;45.590;-122.498;2023-04-24T06:18:38;5.50;;;2.10;;
50631;SDS011;49583;45.590;-122.498;2023-04-24T06:20:50;6.00;;;2.20;;
50631;SDS011;49583;45.590;-122.498;2023-04-24T06:23:03;8.00;;;2.80;;
50631;SDS011;49583;45.590;-122.498;2023-04-24T06:25:16;5.30;;;2.70;;
50631;SDS011;49583;45.590;-122.498;2023-04-24T06:27:29;9.40;;;2.40;;
50631;SDS011;49583;45.590;-122.498;2023-04-24T06:29:41;6.40;;;2.60;;
50631;SDS011;49583;45.590;-122.498;2023-04-24T06:32:00;3.60;;;2.50;;
50631;SDS011;49583;45.590;-122.498;2023-04-24T06:34:12;6.80;;;2.20;;
50631;SDS011;49583;45.590;-122.498;2023-04-24T06:36:24;4.00;;;2.40;;
50631;SDS011;49583;45.590;-122.498;2023-04-24T06:38:37;8.00;;;2.90;;
50631;SDS011;49583;45.590;-122.498;2023-04-24T06:40:50;5.00;;;2.30;;
50631;SDS011;49583;45.590;-122.498;2023-04-24T06:43:02;6.50;;;2.40;;
50631;SDS011;49583;45.590;-122.498;2023-04-24T06:45:15;7.70;;;2.20;;
50631;SDS011;49583;45.590;-122.498;2023-04-24T06:47:29;4.60;;;2.30;;
50631;SDS011;49583;45.590;-122.498;2023-04-24T06:49:41;6.20;;;2.50;;
50631;SDS011;49583;45.590;-122.498;2023-04-24T06:51:54;11.50;;;2.50;;
50631;SDS011;49583;45.590;-122.498;2023-04-24T06:54:06;8.40;;;1.90;;
50631;SDS011;49583;45.590;-122.498;2023-04-24T06:56:20;5.70;;;2.50;;
50631;SDS011;49583;45.590;-122.498;2023-04-24T06:58:32;8.60;;;2.00;;
50631;SDS011;49583;45.590;-122.498;2023-04-24T07:00:45;4.90;;;2.20;;
50631;SDS011;49583;45.590;-122.498;2023-04-24T07:02:58;6.10;;;2.30;;
50631;SDS011;49583;45.590;-122.498;2023-04-24T07:05:12;5.50;;;2.20;;
50631;SDS011;49583;45.590;-122.498;2023-04-24T07:07:27;5.30;;;2.00;;
50631;SDS011;49583;45.590;-122.498;2023-04-24T07:09:39;5.10;;;2.10;;
50631;SDS011;49583;45.590;-122.498;2023-04-24T07:11:52;5.60;;;2.30;;
50631;SDS011;49583;45.590;-122.498;2023-04-24T07:14:06;5.80;;;2.30;;
50631;SDS011;49583;45.590;-122.498;2023-04-24T07:16:18;6.80;;;2.40;;
50631;SDS011;49583;45.590;-122.498;2023-04-24T07:18:31;5.00;;;2.00;;
50631;SDS011;49583;45.590;-122.498;2023-04-24T07:20:44;3.60;;;2.10;;
50631;SDS011;49583;45.590;-122.498;2023-04-24T07:22:57;5.00;;;2.10;;
50631;SDS011;49583;45.590;-122.498;2023-04-24T07:25:10;4.40;;;2.20;;
50631;SDS011;49583;45.590;-122.498;2023-04-24T07:27:23;4.60;;;2.50;;
50631;SDS011;49583;45.590;-122.498;2023-04-24T07:29:35;4.60;;;2.50;;
50631;SDS011;49583;45.590;-122.498;2023-04-24T07:31:48;7.30;;;2.60;;
50631;SDS011;49583;45.590;-122.498;2023-04-24T07:34:01;7.40;;;2.30;;
50631;SDS011;49583;45.590;-122.498;2023-04-24T07:36:14;7.50;;;2.50;;
50631;SDS011;49583;45.590;-122.498;2023-04-24T07:38:26;4.60;;;2.40;;
50631;SDS011;49583;45.590;-122.498;2023-04-24T07:40:41;8.10;;;2.50;;
50631;SDS011;49583;45.590;-122.498;2023-04-24T07:42:56;5.30;;;2.70;;
50631;SDS011;49583;45.590;-122.498;2023-04-24T07:45:09;9.00;;;2.80;;
50631;SDS011;49583;45.590;-122.498;2023-04-24T07:47:21;5.60;;;2.50;;
50631;SDS011;49583;45.590;-122.498;2023-04-24T07:49:34;11.70;;;2.70;;
50631;SDS011;49583;45.590;-122.498;2023-04-24T07:51:47;5.60;;;2.60;;
50631;SDS011;49583;45.590;-122.498;2023-04-24T07:54:00;9.10;;;2.80;;
50631;SDS011;49583;45.590;-122.498;2023-04-24T07:56:12;5.50;;;2.40;;
50631;SDS011;49583;45.590;-122.498;2023-04-24T07:58:25;6.40;;;2.20;;
50631;SDS011;49583;45.590;-122.498;2023-04-24T08:00:37;8.70;;;2.90;;
50631;SDS011;49583;45.590;-122.498;2023-04-24T08:02:50;4.20;;;2.30;;
50631;SDS011;49583;45.590;-122.498;2023-04-24T08:05:03;3.00;;;2.40;;
50631;SDS011;49583;45.590;-122.498;2023-04-24T08:07:16;5.60;;;2.80;;
50631;SDS011;49583;45.590;-122.498;2023-04-24T08:09:28;6.50;;;4.00;;
50631;SDS011;49583;45.590;-122.498;2023-04-24T08:11:41;6.80;;;3.20;;
50631;SDS011;49583;45.590;-122.498;2023-04-24T08:13:54;4.90;;;2.90;;
50631;SDS011;49583;45.590;-122.498;2023-04-24T08:16:06;5.70;;;2.60;;
50631;SDS011;49583;45.590;-122.498;2023-04-24T08:18:18;6.70;;;2.40;;
50631;SDS011;49583;45.590;-122.498;2023-04-24T08:20:32;8.40;;;2.60;;
50631;SDS011;49583;45.590;-122.498;2023-04-24T08:22:44;7.30;;;2.80;;
50631;SDS011;49583;45.590;-122.498;2023-04-24T08:24:57;8.30;;;2.80;;
50631;SDS011;49583;45.590;-122.498;2023-04-24T08:27:09;4.10;;;1.90;;
50631;SDS011;49583;45.590;-122.498;2023-04-24T08:29:23;4.00;;;2.30;;
50631;SDS011;49583;45.590;-122.498;2023-04-24T08:31:36;5.30;;;2.40;;
50631;SDS011;49583;45.590;-122.498;2023-04-24T08:33:49;2.90;;;1.60;;
50631;SDS011;49583;45.590;-122.498;2023-04-24T08:36:01;4.60;;;1.70;;
50631;SDS011;49583;45.590;-122.498;2023-04-24T08:38:14;4.00;;;2.00;;
50631;SDS011;49583;45.590;-122.498;2023-04-24T08:40:28;2.90;;;1.60;;
50631;SDS011;49583;45.590;-122.498;2023-04-24T08:42:43;3.00;;;2.00;;
50631;SDS011;49583;45.590;-122.498;2023-04-24T08:44:58;4.50;;;2.10;;
50631;SDS011;49583;45.590;-122.498;2023-04-24T08:47:11;2.20;;;1.40;;
50631;SDS011;49583;45.590;-122.498;2023-04-24T08:49:24;5.70;;;1.60;;
50631;SDS011;49583;45.590;-122.498;2023-04-24T08:51:38;3.10;;;1.80;;
50631;SDS011;49583;45.590;-122.498;2023-04-24T08:53:51;5.50;;;1.70;;
50631;SDS011;49583;45.590;-122.498;2023-04-24T08:56:06;2.70;;;1.90;;
50631;SDS011;49583;45.590;-122.498;2023-04-24T08:58:20;4.70;;;1.40;;
50631;SDS011;49583;45.590;-122.498;2023-04-24T09:00:34;3.80;;;1.50;;
50631;SDS011;49583;45.590;-122.498;2023-04-24T09:02:53;5.00;;;1.20;;
50631;SDS011;49583;45.590;-122.498;2023-04-24T09:05:07;2.80;;;1.50;;
50631;SDS011;49583;45.590;-122.498;2023-04-24T09:07:22;4.20;;;1.50;;
50631;SDS011;49583;45.590;-122.498;2023-04-24T09:09:37;6.30;;;1.70;;
50631;SDS011;49583;45.590;-122.498;2023-04-24T09:11:51;3.70;;;1.70;;
50631;SDS011;49583;45.590;-122.498;2023-04-24T09:14:04;5.50;;;1.60;;
50631;SDS011;49583;45.590;-122.498;2023-04-24T09:16:18;3.50;;;1.30;;
50631;SDS011;49583;45.590;-122.498;2023-04-24T09:18:31;3.60;;;1.30;;
50631;SDS011;49583;45.590;-122.498;2023-04-24T09:20:59;3.20;;;1.30;;
50631;SDS011;49583;45.590;-122.498;2023-04-24T09:23:13;2.20;;;1.00;;
50631;SDS011;49583;45.590;-122.498;2023-04-24T09:25:32;3.70;;;1.10;;
50631;SDS011;49583;45.590;-122.498;2023-04-24T09:27:45;4.20;;;1.30;;
50631;SDS011;49583;45.590;-122.498;2023-04-24T09:29:58;2.40;;;0.90;;
50631;SDS011;49583;45.590;-122.498;2023-04-24T09:32:21;1.60;;;1.00;;
50631;SDS011;49583;45.590;-122.498;2023-04-24T09:34:35;5.50;;;1.20;;
50631;SDS011;49583;45.590;-122.498;2023-04-24T09:36:47;4.30;;;1.10;;
50631;SDS011;49583;45.590;-122.498;2023-04-24T09:39:00;2.40;;;1.20;;
50631;SDS011;49583;45.590;-122.498;2023-04-24T09:41:13;1.70;;;0.80;;
50631;SDS011;49583;45.590;-122.498;2023-04-24T09:43:26;2.00;;;1.00;;
50631;SDS011;49583;45.590;-122.498;2023-04-24T09:45:38;3.70;;;0.90;;
50631;SDS011;49583;45.590;-122.498;2023-04-24T09:47:53;2.20;;;0.80;;
50631;SDS011;49583;45.590;-122.498;2023-04-24T09:50:15;1.40;;;0.90;;
50631;SDS011;49583;45.590;-122.498;2023-04-24T09:52:28;2.10;;;0.90;;
50631;SDS011;49583;45.590;-122.498;2023-04-24T09:54:41;1.70;;;1.10;;
50631;SDS011;49583;45.590;-122.498;2023-04-24T09:57:01;3.60;;;1.20;;
50631;SDS011;49583;45.590;-122.498;2023-04-24T09:59:17;2.30;;;0.90;;
50631;SDS011;49583;45.590;-122.498;2023-04-24T10:05:04;3.70;;;1.10;;
50631;SDS011;49583;45.590;-122.498;2023-04-24T10:07:30;3.70;;;1.00;;
50631;SDS011;49583;45.590;-122.498;2023-04-24T10:09:53;1.10;;;0.80;;
50631;SDS011;49583;45.590;-122.498;2023-04-24T10:12:15;1.50;;;0.90;;
50631;SDS011;49583;45.590;-122.498;2023-04-24T10:14:48;2.30;;;0.80;;
50631;SDS011;49583;45.590;-122.498;2023-04-24T10:17:11;3.10;;;1.10;;
50631;SDS011;49583;45.590;-122.498;2023-04-24T10:19:25;2.70;;;0.90;;
50631;SDS011;49583;45.590;-122.498;2023-04-24T10:21:49;2.50;;;1.00;;
50631;SDS011;49583;45.590;-122.498;2023-04-24T10:24:22;2.40;;;1.00;;
50631;SDS011;49583;45.590;-122.498;2023-04-24T10:26:39;2.20;;;1.00;;
50631;SDS011;49583;45.590;-122.498;2023-04-24T10:28:56;3.10;;;1.30;;
50631;SDS011;49583;45.590;-122.498;2023-04-24T10:31:20;1.90;;;0.70;;
50631;SDS011;49583;45.590;-122.498;2023-04-24T10:33:33;2.50;;;1.10;;
50631;SDS011;49583;45.590;-122.498;2023-04-24T10:35:59;3.30;;;1.10;;
50631;SDS011;49583;45.590;-122.498;2023-04-24T10:38:13;2.50;;;1.00;;
50631;SDS011;49583;45.590;-122.498;2023-04-24T10:40:42;1.70;;;0.90;;
50631;SDS011;49583;45.590;-122.498;2023-04-24T10:43:01;3.10;;;1.00;;
50631;SDS011;49583;45.590;-122.498;2023-04-24T10:45:25;1.40;;;0.90;;
50631;SDS011;49583;45.590;-122.498;2023-04-24T10:50:45;2.10;;;0.90;;
50631;SDS011;49583;45.590;-122.498;2023-04-24T10:53:14;4.20;;;1.00;;
50631;SDS011;49583;45.590;-122.498;2023-04-24T10:58:05;2.50;;;0.80;;
50631;SDS011;49583;45.590;-122.498;2023-04-24T11:00:21;3.10;;;1.00;;
50631;SDS011;49583;45.590;-122.498;2023-04-24T11:02:38;5.20;;;1.20;;
50631;SDS011;49583;45.590;-122.498;2023-04-24T11:05:17;2.00;;;0.80;;
50631;SDS011;49583;45.590;-122.498;2023-04-24T11:10:45;1.90;;;0.80;;
50631;SDS011;49583;45.590;-122.498;2023-04-24T11:13:16;4.50;;;1.40;;
50631;SDS011;49583;45.590;-122.498;2023-04-24T11:15:31;3.20;;;0.80;;
50631;SDS011;49583;45.590;-122.498;2023-04-24T11:17:43;4.50;;;1.10;;
50631;SDS011;49583;45.590;-122.498;2023-04-24T11:20:06;2.30;;;1.00;;
50631;SDS011;49583;45.590;-122.498;2023-04-24T11:22:34;4.00;;;1.10;;
50631;SDS011;49583;45.590;-122.498;2023-04-24T11:24:51;1.70;;;0.80;;
50631;SDS011;49583;45.590;-122.498;2023-04-24T11:27:26;1.20;;;0.80;;
50631;SDS011;49583;45.590;-122.498;2023-04-24T11:29:58;4.30;;;1.20;;
50631;SDS011;49583;45.590;-122.498;2023-04-24T11:32:26;3.40;;;1.10;;
50631;SDS011;49583;45.590;-122.498;2023-04-24T11:34:41;3.20;;;0.90;;
50631;SDS011;49583;45.590;-122.498;2023-04-24T11:37:01;4.50;;;1.30;;
50631;SDS011;49583;45.590;-122.498;2023-04-24T11:39:26;2.10;;;1.00;;
50631;SDS011;49583;45.590;-122.498;2023-04-24T11:41:41;3.80;;;1.00;;
50631;SDS011;49583;45.590;-122.498;2023-04-24T11:44:03;3.00;;;1.00;;
50631;SDS011;49583;45.590;-122.498;2023-04-24T11:46:22;2.60;;;1.10;;
50631;SDS011;49583;45.590;-122.498;2023-04-24T11:48:50;2.00;;;1.00;;
50631;SDS011;49583;45.590;-122.498;2023-04-24T11:51:06;4.20;;;1.10;;
50631;SDS011;49583;45.590;-122.498;2023-04-24T11:53:20;3.80;;;1.20;;
50631;SDS011;49583;45.590;-122.498;2023-04-24T11:55:36;3.50;;;1.10;;
50631;SDS011;49583;45.590;-122.498;2023-04-24T11:57:49;4.00;;;1.20;;
50631;SDS011;49583;45.590;-122.498;2023-04-24T12:00:04;3.00;;;0.90;;
50631;SDS011;49583;45.590;-122.498;2023-04-24T12:02:28;2.20;;;1.30;;
50631;SDS011;49583;45.590;-122.498;2023-04-24T12:05:05;1.80;;;1.10;;
50631;SDS011;49583;45.590;-122.498;2023-04-24T12:07:20;5.20;;;1.40;;
50631;SDS011;49583;45.590;-122.498;2023-04-24T12:09:42;2.70;;;0.90;;
50631;SDS011;49583;45.590;-122.498;2023-04-24T12:12:01;3.60;;;1.40;;
50631;SDS011;49583;45.590;-122.498;2023-04-24T12:14:18;2.10;;;1.00;;
50631;SDS011;49583;45.590;-122.498;2023-04-24T12:16:46;2.40;;;0.90;;
50631;SDS011;49583;45.590;-122.498;2023-04-24T12:19:10;5.00;;;1.50;;
50631;SDS011;49583;45.590;-122.498;2023-04-24T12:21:33;2.20;;;1.30;;
50631;SDS011;49583;45.590;-122.498;2023-04-24T12:24:05;3.00;;;1.40;;
50631;SDS011;49583;45.590;-122.498;2023-04-24T12:26:19;1.60;;;0.90;;
50631;SDS011;49583;45.590;-122.498;2023-04-24T12:28:53;2.30;;;1.20;;
50631;SDS011;49583;45.590;-122.498;2023-04-24T12:31:20;2.30;;;1.10;;
50631;SDS011;49583;45.590;-122.498;2023-04-24T12:33:43;2.60;;;1.20;;
50631;SDS011;49583;45.590;-122.498;2023-04-24T12:38:28;2.70;;;0.90;;
50631;SDS011;49583;45.590;-122.498;2023-04-24T12:41:05;4.60;;;1.20;;
50631;SDS011;49583;45.590;-122.498;2023-04-24T12:43:30;2.00;;;1.00;;
50631;SDS011;49583;45.590;-122.498;2023-04-24T12:45:52;1.90;;;0.80;;
50631;SDS011;49583;45.590;-122.498;2023-04-24T12:48:05;5.30;;;1.10;;
50631;SDS011;49583;45.590;-122.498;2023-04-24T12:50:38;1.00;;;0.70;;
50631;SDS011;49583;45.590;-122.498;2023-04-24T12:52:56;1.80;;;0.80;;
50631;SDS011;49583;45.590;-122.498;2023-04-24T12:55:19;3.10;;;0.90;;
50631;SDS011;49583;45.590;-122.498;2023-04-24T12:57:42;1.50;;;0.90;;
50631;SDS011;49583;45.590;-122.498;2023-04-24T13:00:06;1.30;;;0.80;;
50631;SDS011;49583;45.590;-122.498;2023-04-24T13:02:23;4.30;;;1.50;;
50631;SDS011;49583;45.590;-122.498;2023-04-24T13:04:49;2.60;;;0.90;;
50631;SDS011;49583;45.590;-122.498;2023-04-24T13:07:22;3.80;;;0.80;;
50631;SDS011;49583;45.590;-122.498;2023-04-24T13:09:49;2.80;;;1.00;;
50631;SDS011;49583;45.590;-122.498;2023-04-24T13:12:22;1.90;;;0.70;;
50631;SDS011;49583;45.590;-122.498;2023-04-24T13:14:36;4.90;;;1.00;;